Stations météo

réclame
Mon MeteoGroup
Vipiteno, Italie (16014): Température de l'air & dewpoint: 06.12.2017 07:00:00 - 12.12.2017 07:00:00 (CET)Vipiteno, Italie (16014): Vitesse du vent: 06.12.2017 07:00:00 - 12.12.2017 07:00:00 (CET)Vipiteno, Italie (16014): Direction du vent: 06.12.2017 07:00:00 - 12.12.2017 07:00:00 (CET)Vipiteno, Italie (16014): Quantités de précipitations: 06.12.2017 07:00:00 - 12.12.2017 07:00:00 (CET)
Date & Time tt [°C] td [°C] ff [km/h] ff [knt] dd rr [mm]
12.12.2017 07:00:00 - - - - - -
12.12.2017 06:00:00 4,5 3,0 4 2 SSW -
12.12.2017 05:00:00 4,8 3,3 16 9 SE -
12.12.2017 04:00:00 3,8 2,3 8 4 WSW -
12.12.2017 03:00:00 3,4 1,9 4 2 SSE -
12.12.2017 02:00:00 3,1 1,6 4 2 SE -
12.12.2017 01:00:00 2,5 - - - - -
12.12.2017 00:00:00 2,4 0,9 4 2 SE -
11.12.2017 23:00:00 2,5 1,0 4 2 SSW -
11.12.2017 22:00:00 2,9 1,4 5 3 SSW -
11.12.2017 21:00:00 3,0 1,5 5 3 E -
11.12.2017 20:00:00 2,8 1,3 9 5 SE -
11.12.2017 19:00:00 3,2 1,7 15 8 E -
11.12.2017 18:00:00 2,0 0,5 8 4 SE -
11.12.2017 17:00:00 1,4 -0,1 4 2 SSE -
11.12.2017 16:00:00 1,7 0,2 9 5 S -
11.12.2017 15:00:00 1,6 0,1 5 3 S -
11.12.2017 14:00:00 0,5 -1,0 4 2 NE -
11.12.2017 13:00:00 -0,3 -1,8 5 3 SE 0,0
11.12.2017 12:00:00 -1,2 -2,7 5 3 SSE -
11.12.2017 11:00:00 -2,7 -4,1 4 2 WSW -
11.12.2017 10:00:00 -3,3 -4,7 4 2 WSW -
11.12.2017 09:00:00 -3,8 -5,2 4 2 ESE -
11.12.2017 08:00:00 -4,1 -5,7 0 0 N -
11.12.2017 07:00:00 -4,4 -6,1 0 0 N 0,0
11.12.2017 06:00:00 -4,5 -6,4 2 1 NNW -
11.12.2017 05:00:00 -4,7 -6,6 0 0 N -
11.12.2017 04:00:00 -4,6 -6,5 0 0 N -
11.12.2017 03:00:00 -4,8 -6,8 4 2 NNW -
11.12.2017 02:00:00 -4,8 -6,8 2 1 E -
11.12.2017 01:00:00 -5,0 -7,2 2 1 SE 0,0
11.12.2017 00:00:00 -5,1 -7,6 0 0 N -
10.12.2017 23:00:00 -5,0 -7,6 4 2 NNE -
10.12.2017 22:00:00 -4,6 -7,6 9 5 SE -
10.12.2017 21:00:00 -5,0 -7,8 4 2 S -
10.12.2017 20:00:00 -5,0 -7,5 9 5 SSE -
10.12.2017 19:00:00 -5,3 -7,3 11 6 SSW 0,0
10.12.2017 18:00:00 -5,7 -7,9 2 1 SE -
10.12.2017 17:00:00 -5,9 -8,4 4 2 ESE -
10.12.2017 16:00:00 -6,3 -10,1 13 7 SE -
10.12.2017 15:00:00 -5,0 -12,1 15 8 ESE -
10.12.2017 14:00:00 -5,0 -12,7 11 6 ESE -
10.12.2017 13:00:00 -6,1 -11,9 9 5 ESE 0,0
10.12.2017 12:00:00 -7,6 -11,5 0 0 N -
10.12.2017 11:00:00 -9,1 -11,8 0 0 N -
10.12.2017 10:00:00 -10,9 -13,5 0 0 N -
10.12.2017 09:00:00 -12,5 -15,2 0 0 N -
10.12.2017 08:00:00 -13,2 -16,1 0 0 N -
10.12.2017 07:00:00 -13,1 -16,4 0 0 N 0,0
10.12.2017 06:00:00 -12,3 -15,7 0 0 N -
10.12.2017 05:00:00 -11,1 -14,7 0 0 N -
10.12.2017 04:00:00 -11,1 -14,8 0 0 N -
10.12.2017 03:00:00 -11,3 -15,0 0 0 N -
10.12.2017 02:00:00 -11,1 -14,8 0 0 N -
10.12.2017 01:00:00 -11,7 -15,6 0 0 N 0,0
10.12.2017 00:00:00 -11,8 -16,2 4 2 W -
09.12.2017 23:00:00 -11,1 -15,7 0 0 N -
09.12.2017 22:00:00 -11,4 -17,1 4 2 NNW -
09.12.2017 21:00:00 -8,4 -14,2 5 3 WSW -
09.12.2017 20:00:00 -8,2 -14,2 9 5 NW -
09.12.2017 19:00:00 -7,1 -13,4 16 9 W 0,0
09.12.2017 18:00:00 -6,1 -13,5 13 7 WSW -
09.12.2017 17:00:00 -4,1 -14,1 9 5 WNW -
09.12.2017 16:00:00 -3,1 -13,7 15 8 NNW -
09.12.2017 15:00:00 -2,8 -13,7 16 9 NNW -
09.12.2017 14:00:00 -2,5 -12,7 16 9 NW -
09.12.2017 13:00:00 -2,4 -11,5 21 11 NW 0,0
09.12.2017 12:00:00 -2,7 -10,8 18 10 WNW -
09.12.2017 11:00:00 -2,5 -11,6 22 12 WNW -
09.12.2017 10:00:00 -2,6 -12,8 11 6 WSW -
09.12.2017 09:00:00 -2,5 -12,1 16 9 W -
09.12.2017 08:00:00 -2,7 -11,8 15 8 NW -
09.12.2017 07:00:00 -2,5 -11,4 32 18 WNW 0,0
09.12.2017 06:00:00 -2,0 -11,2 15 8 NW -
09.12.2017 05:00:00 -2,0 -8,6 18 10 W -
09.12.2017 04:00:00 -1,3 -9,1 18 10 NNW -
09.12.2017 03:00:00 -0,8 -8,8 16 9 WNW -
09.12.2017 02:00:00 -0,5 -9,0 18 10 WNW -
09.12.2017 01:00:00 -0,3 -8,1 21 11 WNW 0,0
09.12.2017 00:00:00 0,0 -7,6 15 8 W -
08.12.2017 23:00:00 0,1 -7,1 21 11 WNW -
08.12.2017 22:00:00 0,6 -5,9 24 13 WNW -
08.12.2017 21:00:00 0,8 -5,3 16 9 NNW -
08.12.2017 20:00:00 0,8 -4,1 18 10 NW -
08.12.2017 19:00:00 0,7 -2,9 11 6 W 0,0
08.12.2017 18:00:00 1,1 -2,7 13 7 WSW -
08.12.2017 17:00:00 -0,4 -1,9 5 3 WSW -
08.12.2017 16:00:00 -0,5 -2,1 0 0 N -
08.12.2017 15:00:00 -0,6 -2,4 0 0 N -
08.12.2017 14:00:00 -0,8 -2,6 2 1 NW -
08.12.2017 13:00:00 -0,8 -2,7 0 0 N 0,0
08.12.2017 12:00:00 -1,0 -3,2 0 0 N -
08.12.2017 11:00:00 -1,2 -3,6 2 1 W -
08.12.2017 10:00:00 -1,4 -4,0 0 0 N -
08.12.2017 09:00:00 -1,8 -4,3 0 0 N -
08.12.2017 08:00:00 -2,0 -4,5 2 1 W -
08.12.2017 07:00:00 -2,3 -4,8 0 0 N 0,0
08.12.2017 06:00:00 -2,5 -4,7 2 1 NNE -
08.12.2017 05:00:00 -2,9 -5,1 2 1 W -
08.12.2017 04:00:00 -3,1 -5,1 2 1 ESE -
08.12.2017 03:00:00 -3,4 -5,4 2 1 N -
08.12.2017 02:00:00 -3,8 -5,7 0 0 N -
08.12.2017 01:00:00 -4,5 -6,4 0 0 N 0,0
08.12.2017 00:00:00 -5,5 -7,7 0 0 N -
07.12.2017 23:00:00 -7,5 -10,2 0 0 N -
07.12.2017 22:00:00 -7,1 -10,2 0 0 N -
07.12.2017 21:00:00 -6,2 -9,6 2 1 WSW -
07.12.2017 20:00:00 -6,0 -9,6 0 0 N -
07.12.2017 19:00:00 -4,9 -8,9 2 1 S 0,0
07.12.2017 18:00:00 -3,8 -8,2 0 0 N -
07.12.2017 17:00:00 -2,6 -7,6 2 1 WNW -
07.12.2017 16:00:00 -0,8 -6,2 0 0 N -
07.12.2017 15:00:00 -0,5 -6,4 2 1 S -
07.12.2017 14:00:00 0,0 -6,7 2 1 SSE -
07.12.2017 13:00:00 2,6 -5,4 4 2 SSE 0,0
07.12.2017 12:00:00 0,8 -3,6 4 2 W -
07.12.2017 11:00:00 -1,0 -2,9 2 1 NNE -
07.12.2017 10:00:00 -3,9 -5,3 0 0 N -
07.12.2017 09:00:00 -7,4 -9,2 0 0 N -
07.12.2017 08:00:00 -9,0 -10,8 0 0 N -
07.12.2017 07:00:00 -9,1 -11,0 0 0 N 0,0
07.12.2017 06:00:00 -8,6 -10,7 0 0 N -
07.12.2017 05:00:00 -8,4 -10,5 0 0 N -
07.12.2017 04:00:00 -7,8 -9,9 0 0 N -
07.12.2017 03:00:00 -7,3 -9,4 0 0 N -
07.12.2017 02:00:00 -8,2 -10,5 0 0 N -
07.12.2017 01:00:00 -7,6 -10,0 0 0 N 0,0
07.12.2017 00:00:00 -7,2 -9,9 0 0 N -
06.12.2017 23:00:00 -6,4 -9,5 0 0 N -
06.12.2017 22:00:00 -5,5 -8,9 2 1 WSW -
06.12.2017 21:00:00 -5,0 -8,8 0 0 N -
06.12.2017 20:00:00 -4,8 -8,8 0 0 N -
06.12.2017 19:00:00 -2,6 -6,5 0 0 N 0,0
06.12.2017 18:00:00 -2,1 -6,5 2 1 WSW -
06.12.2017 17:00:00 -1,0 -6,0 2 1 S -
06.12.2017 16:00:00 0,2 -5,5 0 0 N -
06.12.2017 15:00:00 1,3 -4,8 2 1 SE -
06.12.2017 14:00:00 1,9 -5,4 2 1 S -
06.12.2017 13:00:00 4,3 -4,3 4 2 S 0,0
06.12.2017 12:00:00 3,5 -1,9 2 1 WNW -
06.12.2017 11:00:00 0,4 -1,7 0 0 N -
06.12.2017 10:00:00 -2,1 -3,5 2 1 NNE -
06.12.2017 09:00:00 -5,4 -7,3 0 0 N -
06.12.2017 08:00:00 -7,2 -9,2 2 1 NNE -
06.12.2017 07:00:00 -7,1 -9,2 2 1 W 0,0

tt = Température de l'air
td = dewpoint
ff = Vitesse du vent
dd = Direction du vent
rr = Quantités de précipitations

stations d'obs. à proximité